createdAt,value
2018-04-24T00:01:30.907Z,1013.30
2018-04-24T00:02:30.912Z,1013.29
2018-04-24T00:04:26.887Z,1013.34
2018-04-24T00:05:26.870Z,1013.28
2018-04-24T00:07:22.782Z,1013.31
2018-04-24T00:08:23.304Z,1013.29
2018-04-24T00:10:18.761Z,1013.33
2018-04-24T00:11:19.245Z,1013.31
2018-04-24T00:13:15.703Z,1013.33
2018-04-24T00:14:15.190Z,1013.31
2018-04-24T00:16:10.660Z,1013.33
2018-04-24T00:17:10.616Z,1013.33
2018-04-24T00:19:09.069Z,1013.31
2018-04-24T00:20:08.557Z,1013.34
2018-04-24T00:22:05.033Z,1013.35
2018-04-24T00:23:04.500Z,1013.35
2018-04-24T00:25:01.379Z,1013.37
2018-04-24T00:26:00.957Z,1013.41
2018-04-24T00:27:59.901Z,1013.38
2018-04-24T00:28:58.891Z,1013.33
2018-04-24T00:30:54.320Z,1013.41
2018-04-24T00:31:54.336Z,1013.31
2018-04-24T00:33:50.778Z,1013.30
2018-04-24T00:34:50.266Z,1013.26
2018-04-24T00:36:46.198Z,1013.29
2018-04-24T00:37:46.200Z,1013.27
2018-04-24T00:39:44.669Z,1013.22
2018-04-24T00:40:44.289Z,1013.26
2018-04-24T00:42:40.247Z,1013.23
2018-04-24T00:43:40.223Z,1013.22
2018-04-24T00:45:36.689Z,1013.25
2018-04-24T00:46:36.115Z,1013.25
2018-04-24T00:48:32.585Z,1013.20
2018-04-24T00:49:32.068Z,1013.14
2018-04-24T00:51:29.545Z,1013.10
2018-04-24T00:52:28.025Z,1013.10
2018-04-24T00:54:24.001Z,1013.07
2018-04-24T00:55:24.483Z,1013.04
2018-04-24T00:57:20.918Z,1013.02
2018-04-24T00:58:20.920Z,1013.01
2018-04-24T01:00:14.401Z,1012.96
2018-04-24T01:01:14.376Z,1012.97
2018-04-24T01:03:10.303Z,1013.00
2018-04-24T01:04:10.294Z,1012.92
2018-04-24T01:06:06.267Z,1012.89
2018-04-24T01:07:06.229Z,1012.97
2018-04-24T01:09:02.181Z,1012.91
2018-04-24T01:10:02.157Z,1012.86
2018-04-24T01:12:02.619Z,1012.85
2018-04-24T01:13:00.251Z,1012.89
2018-04-24T01:14:56.219Z,1012.92
2018-04-24T01:15:56.190Z,1012.90
2018-04-24T01:17:52.140Z,1012.90
2018-04-24T01:18:52.139Z,1012.91
2018-04-24T01:20:48.066Z,1012.91
2018-04-24T01:21:48.578Z,1012.89
2018-04-24T01:23:42.549Z,1012.88
2018-04-24T01:24:42.525Z,1012.90
2018-04-24T01:26:38.452Z,1012.97
2018-04-24T01:27:38.445Z,1012.99
2018-04-24T01:29:34.466Z,1013.07
2018-04-24T01:30:34.910Z,1013.04
2018-04-24T01:32:31.848Z,1013.06
2018-04-24T01:33:30.336Z,1013.03
2018-04-24T01:35:26.273Z,1013.04
2018-04-24T01:36:26.268Z,1013.03
2018-04-24T01:38:22.722Z,1013.04
2018-04-24T01:39:22.204Z,1013.05
2018-04-24T01:41:18.146Z,1013.11
2018-04-24T01:42:18.141Z,1013.08
2018-04-24T01:44:15.018Z,1013.15
2018-04-24T01:45:15.581Z,1013.16
2018-04-24T01:47:10.037Z,1013.18
2018-04-24T01:48:10.044Z,1013.19
2018-04-24T01:50:08.011Z,1013.20
2018-04-24T01:51:08.495Z,1013.14
2018-04-24T01:53:02.460Z,1013.12
2018-04-24T01:54:02.418Z,1013.14
2018-04-24T01:56:00.373Z,1013.10
2018-04-24T01:56:58.888Z,1013.03
2018-04-24T01:58:54.287Z,1013.02
2018-04-24T01:59:54.266Z,1013.02
2018-04-24T02:01:50.205Z,1012.98
2018-04-24T02:02:50.210Z,1012.97
2018-04-24T02:04:46.142Z,1012.98
2018-04-24T02:05:46.133Z,1012.99
2018-04-24T02:07:42.102Z,1012.97
2018-04-24T02:08:42.072Z,1012.97
2018-04-24T02:10:38.006Z,1012.93
2018-04-24T02:11:38.532Z,1012.89
2018-04-24T02:13:33.948Z,1012.90
2018-04-24T02:14:33.944Z,1012.89
2018-04-24T02:16:29.934Z,1012.92
2018-04-24T02:17:30.400Z,1012.95
2018-04-24T02:19:26.327Z,1012.89
2018-04-24T02:20:25.806Z,1012.92
2018-04-24T02:22:21.777Z,1012.89
2018-04-24T02:23:22.287Z,1012.88
2018-04-24T02:25:18.231Z,1012.89
2018-04-24T02:26:17.727Z,1012.91
2018-04-24T02:28:13.660Z,1012.87
2018-04-24T02:29:13.675Z,1012.88
2018-04-24T02:31:09.643Z,1012.83
2018-04-24T02:32:09.624Z,1012.80
2018-04-24T02:34:06.051Z,1012.87
2018-04-24T02:35:05.550Z,1012.79
2018-04-24T02:37:01.497Z,1012.81
2018-04-24T02:38:01.486Z,1012.83
2018-04-24T02:39:57.446Z,1012.86
2018-04-24T02:40:57.428Z,1012.84
2018-04-24T02:42:53.881Z,1012.76
2018-04-24T02:43:53.868Z,1012.79
2018-04-24T02:45:49.340Z,1012.86
2018-04-24T02:46:49.803Z,1012.92
2018-04-24T02:48:45.239Z,1012.96
2018-04-24T02:49:45.201Z,1012.90
2018-04-24T02:51:41.137Z,1012.86
2018-04-24T02:52:41.666Z,1012.85
2018-04-24T02:54:37.110Z,1012.88
2018-04-24T02:55:37.064Z,1012.93
2018-04-24T02:57:33.032Z,1012.94
2018-04-24T02:58:32.992Z,1012.91
2018-04-24T03:00:29.458Z,1012.73
2018-04-24T03:01:28.956Z,1012.70
2018-04-24T03:03:24.895Z,1012.73
2018-04-24T03:04:25.381Z,1012.74
2018-04-24T03:06:21.322Z,1012.69
2018-04-24T03:07:21.317Z,1012.62
2018-04-24T03:09:16.695Z,1012.57
2018-04-24T03:10:16.696Z,1012.63
2018-04-24T03:12:13.156Z,1012.64
2018-04-24T03:13:12.731Z,1012.62
2018-04-24T03:15:08.600Z,1012.57
2018-04-24T03:16:08.567Z,1012.59
2018-04-24T03:18:06.551Z,1012.64
2018-04-24T03:19:06.514Z,1012.72
2018-04-24T03:21:02.961Z,1012.75
2018-04-24T03:22:02.973Z,1012.68
2018-04-24T03:23:59.412Z,1012.67
2018-04-24T03:24:58.382Z,1012.69
2018-04-24T03:26:54.357Z,1012.68
2018-04-24T03:27:54.305Z,1012.70
2018-04-24T03:29:50.273Z,1012.75
2018-04-24T03:30:50.262Z,1012.79
2018-04-24T03:32:46.274Z,1012.79
2018-04-24T03:33:46.735Z,1012.79
2018-04-24T03:35:43.599Z,1012.68
2018-04-24T03:36:42.133Z,1012.66
2018-04-24T03:38:39.567Z,1012.60
2018-04-24T03:39:39.573Z,1012.62
2018-04-24T03:41:34.847Z,1012.65
2018-04-24T03:42:34.838Z,1012.59
2018-04-24T03:44:31.294Z,1012.54
2018-04-24T03:45:30.783Z,1012.53
2018-04-24T03:47:26.738Z,1012.57
2018-04-24T03:48:26.734Z,1012.53
2018-04-24T03:50:22.699Z,1012.52
2018-04-24T03:51:23.207Z,1012.56
2018-04-24T03:53:18.654Z,1012.52
2018-04-24T03:54:18.617Z,1012.50
2018-04-24T03:56:14.606Z,1012.55
2018-04-24T03:57:14.603Z,1012.60
2018-04-24T03:59:10.516Z,1012.59
2018-04-24T04:00:10.488Z,1012.53
2018-04-24T04:02:06.419Z,1012.60
2018-04-24T04:03:06.434Z,1012.60
2018-04-24T04:05:02.405Z,1012.57
2018-04-24T04:06:02.898Z,1012.57
2018-04-24T04:07:58.310Z,1012.56
2018-04-24T04:08:58.312Z,1012.51
2018-04-24T04:10:55.259Z,1012.52
2018-04-24T04:11:54.263Z,1012.56
2018-04-24T04:13:53.216Z,1012.58
2018-04-24T04:14:52.726Z,1012.60
2018-04-24T04:16:48.653Z,1012.50
2018-04-24T04:17:48.128Z,1012.52
2018-04-24T04:19:44.099Z,1012.50
2018-04-24T04:20:44.584Z,1012.53
2018-04-24T04:22:40.064Z,1012.50
2018-04-24T04:23:41.014Z,1012.47
2018-04-24T04:25:36.008Z,1012.48
2018-04-24T04:26:35.928Z,1012.43
2018-04-24T04:28:33.899Z,1012.53
2018-04-24T04:29:33.872Z,1012.57
2018-04-24T04:31:29.847Z,1012.55
2018-04-24T04:32:29.796Z,1012.51
2018-04-24T04:34:25.779Z,1012.52
2018-04-24T04:35:25.792Z,1012.52
2018-04-24T04:37:22.217Z,1012.44
2018-04-24T04:38:22.640Z,1012.46
2018-04-24T04:40:17.726Z,1012.44
2018-04-24T04:41:17.703Z,1012.40
2018-04-24T04:43:13.643Z,1012.39
2018-04-24T04:44:13.643Z,1012.38
2018-04-24T04:46:09.556Z,1012.43
2018-04-24T04:47:09.567Z,1012.48
2018-04-24T04:49:05.544Z,1012.48
2018-04-24T04:50:05.514Z,1012.46
2018-04-24T04:52:01.480Z,1012.41
2018-04-24T04:53:01.965Z,1012.44
2018-04-24T04:54:57.410Z,1012.46
2018-04-24T04:55:57.379Z,1012.46
2018-04-24T04:57:53.316Z,1012.43
2018-04-24T04:58:53.315Z,1012.49
2018-04-24T05:00:49.325Z,1012.52
2018-04-24T05:01:50.195Z,1012.52
2018-04-24T05:03:45.270Z,1012.50
2018-04-24T05:04:45.274Z,1012.53
2018-04-24T05:06:41.210Z,1012.59
2018-04-24T05:07:41.191Z,1012.62
2018-04-24T05:09:35.656Z,1012.67
2018-04-24T05:10:35.633Z,1012.73
2018-04-24T05:12:32.125Z,1012.75
2018-04-24T05:13:31.600Z,1012.79
2018-04-24T05:15:27.538Z,1012.88
2018-04-24T05:16:27.478Z,1012.89
2018-04-24T05:18:25.428Z,1012.91
2018-04-24T05:19:23.939Z,1012.91
2018-04-24T05:21:19.337Z,1012.95
2018-04-24T05:22:19.868Z,1012.95
2018-04-24T05:24:14.794Z,1013.01
2018-04-24T05:25:13.812Z,1012.99
2018-04-24T05:27:10.779Z,1013.05
2018-04-24T05:28:09.769Z,1013.01
2018-04-24T05:30:07.237Z,1013.01
2018-04-24T05:31:05.725Z,1013.02
2018-04-24T05:33:02.670Z,1013.06
2018-04-24T05:34:01.692Z,1013.06
2018-04-24T05:35:57.654Z,1013.05
2018-04-24T05:36:57.597Z,1013.02
2018-04-24T05:38:53.574Z,1013.01
2018-04-24T05:39:54.057Z,1013.03
2018-04-24T05:41:49.504Z,1013.03
2018-04-24T05:42:50.005Z,1013.13
2018-04-24T05:44:45.437Z,1013.10
2018-04-24T05:45:45.426Z,1013.14
2018-04-24T05:47:43.907Z,1013.18
2018-04-24T05:48:43.899Z,1013.20
2018-04-24T05:50:39.315Z,1013.22
2018-04-24T05:51:39.301Z,1013.23
2018-04-24T05:53:36.255Z,1013.26
2018-04-24T05:54:35.271Z,1013.24
2018-04-24T05:56:31.738Z,1013.26
2018-04-24T05:57:31.205Z,1013.27
2018-04-24T05:59:27.175Z,1013.25
2018-04-24T06:00:27.147Z,1013.25
2018-04-24T06:02:23.116Z,1013.28
2018-04-24T06:03:23.614Z,1013.30
2018-04-24T06:05:19.585Z,1013.32
2018-04-24T06:06:19.561Z,1013.27
2018-04-24T06:08:15.035Z,1013.27
2018-04-24T06:09:14.959Z,1013.29
2018-04-24T06:11:11.487Z,1013.24
2018-04-24T06:12:10.910Z,1013.27
2018-04-24T06:14:08.405Z,1013.21
2018-04-24T06:15:07.434Z,1013.20
2018-04-24T06:17:03.333Z,1013.06
2018-04-24T06:18:03.318Z,1013.11
2018-04-24T06:19:58.786Z,1013.11
2018-04-24T06:20:59.270Z,1013.12
2018-04-24T06:22:55.213Z,1013.10
2018-04-24T06:23:54.697Z,1013.11
2018-04-24T06:25:51.657Z,1013.12
2018-04-24T06:26:51.154Z,1013.13
2018-04-24T06:28:46.675Z,1013.12
2018-04-24T06:29:47.591Z,1013.08
2018-04-24T06:31:43.047Z,1013.15
2018-04-24T06:32:42.529Z,1013.11
2018-04-24T06:34:38.493Z,1013.19
2018-04-24T06:35:39.414Z,1013.13
2018-04-24T06:37:34.933Z,1013.17
2018-04-24T06:38:34.438Z,1013.13
2018-04-24T06:40:30.357Z,1013.17
2018-04-24T06:41:30.883Z,1013.19
2018-04-24T06:43:27.313Z,1013.23
2018-04-24T06:44:26.801Z,1013.22
2018-04-24T06:46:22.182Z,1013.18
2018-04-24T06:47:22.183Z,1013.21
2018-04-24T06:49:18.637Z,1013.24
2018-04-24T06:50:18.153Z,1013.24
2018-04-24T06:52:15.103Z,1013.18
2018-04-24T06:53:14.096Z,1013.14
2018-04-24T06:55:10.542Z,1013.16
2018-04-24T06:56:10.541Z,1013.15
2018-04-24T06:58:07.481Z,1013.16
2018-04-24T06:59:05.954Z,1013.20
2018-04-24T07:01:02.915Z,1013.18
2018-04-24T07:02:01.906Z,1013.20
2018-04-24T07:03:58.362Z,1013.19
2018-04-24T07:04:57.832Z,1013.24
2018-04-24T07:06:54.293Z,1013.21
2018-04-24T07:07:53.784Z,1013.23
2018-04-24T07:09:49.752Z,1013.16
2018-04-24T07:10:50.233Z,1013.17
2018-04-24T07:12:46.674Z,1013.17
2018-04-24T07:13:45.653Z,1013.18
2018-04-24T07:15:42.109Z,1013.23
2018-04-24T07:16:42.102Z,1013.22
2018-04-24T07:18:37.495Z,1013.25
2018-04-24T07:19:37.517Z,1013.22
2018-04-24T07:21:33.441Z,1013.23
2018-04-24T07:22:33.461Z,1013.22
2018-04-24T07:24:30.897Z,1013.21
2018-04-24T07:25:29.388Z,1013.25
2018-04-24T07:27:25.348Z,1013.18
2018-04-24T07:28:25.867Z,1013.20
2018-04-24T07:30:22.816Z,1013.18
2018-04-24T07:31:22.294Z,1013.19
2018-04-24T07:33:19.249Z,1013.18
2018-04-24T07:34:18.229Z,1013.19
2018-04-24T07:36:14.204Z,1013.13
2018-04-24T07:37:14.133Z,1013.16
2018-04-24T07:39:10.090Z,1013.13
2018-04-24T07:40:10.605Z,1013.10
2018-04-24T07:42:08.148Z,1013.13
2018-04-24T07:43:09.030Z,1013.12
2018-04-24T07:45:02.640Z,1013.09
2018-04-24T07:46:02.656Z,1013.13
2018-04-24T07:48:00.110Z,1013.08
2018-04-24T07:48:58.640Z,1013.08
2018-04-24T07:50:56.091Z,1013.05
2018-04-24T07:51:55.433Z,1013.11
2018-04-24T07:53:51.899Z,1013.08
2018-04-24T07:54:51.380Z,1013.08
2018-04-24T07:56:48.337Z,1013.08
2018-04-24T07:57:47.317Z,1013.12
2018-04-24T07:59:41.805Z,1013.13
2018-04-24T08:00:41.782Z,1013.17
2018-04-24T08:02:37.717Z,1013.15
2018-04-24T08:03:37.718Z,1013.21
2018-04-24T08:05:33.688Z,1013.16
2018-04-24T08:06:33.645Z,1013.20
2018-04-24T08:08:29.561Z,1013.20
2018-04-24T08:09:29.570Z,1013.20
2018-04-24T08:11:26.035Z,1013.16
2018-04-24T08:12:25.509Z,1013.18
2018-04-24T08:14:21.978Z,1013.17
2018-04-24T08:15:21.451Z,1013.20
2018-04-24T08:17:19.425Z,1013.22
2018-04-24T08:18:17.412Z,1013.24
2018-04-24T08:20:13.918Z,1013.23
2018-04-24T08:21:13.346Z,1013.21
2018-04-24T08:23:09.317Z,1013.21
2018-04-24T08:24:09.301Z,1013.20
2018-04-24T08:26:05.261Z,1013.24
2018-04-24T08:27:05.217Z,1013.18
2018-04-24T08:29:01.163Z,1013.23
2018-04-24T08:30:01.176Z,1013.18
2018-04-24T08:31:57.144Z,1013.23
2018-04-24T08:32:57.625Z,1013.24
2018-04-24T08:34:53.113Z,1013.19
2018-04-24T08:35:53.112Z,1013.19
2018-04-24T08:37:50.073Z,1013.18
2018-04-24T08:38:49.070Z,1013.17
2018-04-24T08:40:45.501Z,1013.17
2018-04-24T08:41:44.989Z,1013.17
2018-04-24T08:43:43.939Z,1013.17
2018-04-24T08:44:43.440Z,1013.19
2018-04-24T08:46:39.409Z,1013.22
2018-04-24T08:47:38.900Z,1013.29
2018-04-24T08:49:34.887Z,1013.25
2018-04-24T08:50:35.931Z,1013.27
2018-04-24T08:52:31.360Z,1013.33
2018-04-24T08:53:30.822Z,1013.33
2018-04-24T08:55:26.802Z,1013.31
2018-04-24T08:56:26.849Z,1013.27
2018-04-24T08:58:22.720Z,1013.29
2018-04-24T08:59:22.702Z,1013.30
2018-04-24T09:01:17.172Z,1013.33
2018-04-24T09:02:18.151Z,1013.34
2018-04-24T09:04:12.133Z,1013.34
2018-04-24T09:05:11.629Z,1013.34
2018-04-24T09:07:06.099Z,1013.36
2018-04-24T09:08:06.095Z,1013.36
2018-04-24T09:10:02.045Z,1013.35
2018-04-24T09:11:02.031Z,1013.38
2018-04-24T09:12:58.483Z,1013.40
2018-04-24T09:13:56.485Z,1013.45
2018-04-24T09:15:52.392Z,1013.49
2018-04-24T09:16:52.381Z,1013.45
2018-04-24T09:18:48.837Z,1013.47
2018-04-24T09:19:48.873Z,1013.47
2018-04-24T09:21:49.352Z,1013.47
2018-04-24T09:22:48.876Z,1013.46
2018-04-24T09:24:49.273Z,1013.39
2018-04-24T09:25:49.287Z,1013.43
2018-04-24T09:27:50.715Z,1013.42
2018-04-24T09:28:49.810Z,1013.41
2018-04-24T09:30:47.693Z,1013.45
2018-04-24T09:31:47.663Z,1013.50
2018-04-24T09:33:47.737Z,1013.44
2018-04-24T09:34:45.736Z,1013.46
2018-04-24T09:36:41.713Z,1013.43
2018-04-24T09:37:41.711Z,1013.42
2018-04-24T09:39:39.694Z,1013.44
2018-04-24T09:40:39.650Z,1013.50
2018-04-24T09:42:40.169Z,1013.56
2018-04-24T09:43:40.087Z,1013.61
2018-04-24T09:45:40.537Z,1013.60
2018-04-24T09:46:41.092Z,1013.58
2018-04-24T09:48:40.955Z,1013.49
2018-04-24T09:49:40.995Z,1013.54
2018-04-24T09:51:39.411Z,1013.62
2018-04-24T09:52:38.883Z,1013.60
2018-04-24T09:54:39.363Z,1013.58
2018-04-24T09:55:39.378Z,1013.61
2018-04-24T09:57:39.792Z,1013.54
2018-04-24T09:58:37.427Z,1013.56
2018-04-24T10:00:37.844Z,1013.51
2018-04-24T10:01:38.256Z,1013.51
2018-04-24T10:03:36.223Z,1013.51
2018-04-24T10:04:35.691Z,1013.48
2018-04-24T10:06:36.201Z,1013.56
2018-04-24T10:07:36.157Z,1013.54
2018-04-24T10:09:36.113Z,1013.51
2018-04-24T10:10:35.118Z,1013.50
2018-04-24T10:12:33.227Z,1013.51
2018-04-24T10:13:34.215Z,1013.53
2018-04-24T10:15:33.394Z,1013.53
2018-04-24T10:16:32.794Z,1013.43
2018-04-24T10:18:32.245Z,1013.47
2018-04-24T10:19:30.872Z,1013.46
2018-04-24T10:21:31.318Z,1013.44
2018-04-24T10:22:31.341Z,1013.45
2018-04-24T10:24:30.792Z,1013.39
2018-04-24T10:25:29.826Z,1013.39
2018-04-24T10:27:27.370Z,1013.38
2018-04-24T10:28:28.167Z,1013.41
2018-04-24T10:30:25.832Z,1013.37
2018-04-24T10:31:26.333Z,1013.34
2018-04-24T10:33:26.456Z,1013.34
2018-04-24T10:34:26.445Z,1013.34
2018-04-24T10:36:24.400Z,1013.32
2018-04-24T10:37:22.429Z,1013.28
2018-04-24T10:39:17.849Z,1013.30
2018-04-24T10:40:18.351Z,1013.30
2018-04-24T10:42:18.341Z,1013.31
2018-04-24T10:43:19.429Z,1013.30
2018-04-24T10:45:18.775Z,1013.30
2018-04-24T10:46:19.244Z,1013.30
2018-04-24T10:48:18.696Z,1013.27
2018-04-24T10:49:17.693Z,1013.25
2018-04-24T10:51:13.685Z,1013.20
2018-04-24T10:52:14.169Z,1013.15
2018-04-24T10:54:14.144Z,1013.13
2018-04-24T10:55:14.134Z,1013.11
2018-04-24T10:57:14.591Z,1013.03
2018-04-24T10:58:14.595Z,1013.07
2018-04-24T11:00:15.622Z,1013.00
2018-04-24T11:01:15.043Z,1013.01
2018-04-24T11:03:15.964Z,1013.01
2018-04-24T11:04:15.470Z,1013.01
2018-04-24T11:06:15.929Z,1012.93
2018-04-24T11:07:16.025Z,1012.90
2018-04-24T11:09:17.795Z,1012.92
2018-04-24T11:10:16.390Z,1012.93
2018-04-24T11:12:16.875Z,1012.91
2018-04-24T11:13:16.907Z,1012.91
2018-04-24T11:15:17.360Z,1012.89
2018-04-24T11:16:17.290Z,1012.84
2018-04-24T11:18:17.737Z,1012.85
2018-04-24T11:19:17.734Z,1012.76
2018-04-24T11:21:20.801Z,1012.78
2018-04-24T11:22:20.218Z,1012.78
2018-04-24T11:24:17.307Z,1012.75
2018-04-24T11:25:17.313Z,1012.78
2018-04-24T11:27:19.294Z,1012.74
2018-04-24T11:28:18.774Z,1012.71
2018-04-24T11:30:19.754Z,1012.66
2018-04-24T11:31:18.321Z,1012.65
2018-04-24T11:33:20.208Z,1012.60
2018-04-24T11:34:19.778Z,1012.60
2018-04-24T11:36:19.371Z,1012.59
2018-04-24T11:37:20.276Z,1012.54
2018-04-24T11:39:18.772Z,1012.55
2018-04-24T11:40:18.311Z,1012.55
2018-04-24T11:42:15.391Z,1012.51
2018-04-24T11:43:15.384Z,1012.51
2018-04-24T11:45:16.013Z,1012.54
2018-04-24T11:46:15.885Z,1012.52
2018-04-24T11:48:16.365Z,1012.57
2018-04-24T11:49:17.806Z,1012.53
2018-04-24T11:51:17.317Z,1012.54
2018-04-24T11:52:17.711Z,1012.51
2018-04-24T11:54:20.866Z,1012.53
2018-04-24T11:55:20.745Z,1012.51
2018-04-24T11:57:17.246Z,1012.53
2018-04-24T11:58:17.202Z,1012.52
2018-04-24T12:00:13.676Z,1012.49
2018-04-24T12:01:14.672Z,1012.47
2018-04-24T12:03:14.115Z,1012.44
2018-04-24T12:04:14.147Z,1012.41
2018-04-24T12:06:12.097Z,1012.42
2018-04-24T12:07:12.577Z,1012.46
2018-04-24T12:09:12.623Z,1012.50
2018-04-24T12:10:13.063Z,1012.45
2018-04-24T12:12:13.503Z,1012.45
2018-04-24T12:13:13.628Z,1012.47
2018-04-24T12:15:15.442Z,1012.46
2018-04-24T12:16:15.464Z,1012.49
2018-04-24T12:18:15.002Z,1012.45
2018-04-24T12:19:15.482Z,1012.49
2018-04-24T12:21:16.491Z,1012.42
2018-04-24T12:22:16.396Z,1012.40
2018-04-24T12:24:17.879Z,1012.39
2018-04-24T12:25:17.870Z,1012.44
2018-04-24T12:27:18.363Z,1012.37
2018-04-24T12:28:18.861Z,1012.40
2018-04-24T12:30:20.325Z,1012.39
2018-04-24T12:31:19.329Z,1012.39
2018-04-24T12:33:19.357Z,1012.36
2018-04-24T12:34:19.732Z,1012.35
2018-04-24T12:36:20.181Z,1012.32
2018-04-24T12:37:19.690Z,1012.29
2018-04-24T12:39:20.123Z,1012.23
2018-04-24T12:40:20.184Z,1012.27
2018-04-24T12:42:21.759Z,1012.27
2018-04-24T12:43:20.697Z,1012.27
2018-04-24T12:45:22.570Z,1012.26
2018-04-24T12:46:22.052Z,1012.19
2018-04-24T12:48:22.098Z,1012.14
2018-04-24T12:49:22.629Z,1012.22
2018-04-24T12:51:22.563Z,1012.15
2018-04-24T12:52:22.629Z,1012.15
2018-04-24T12:54:23.491Z,1012.14
2018-04-24T12:55:22.502Z,1012.16
2018-04-24T12:57:18.419Z,1012.08
2018-04-24T12:58:18.463Z,1012.10
2018-04-24T13:00:16.395Z,1012.03
2018-04-24T13:01:17.944Z,1012.01
2018-04-24T13:03:19.141Z,1012.01
2018-04-24T13:04:19.490Z,1012.02
2018-04-24T13:06:17.041Z,1012.02
2018-04-24T13:07:17.892Z,1012.02
2018-04-24T13:09:17.907Z,1012.01
2018-04-24T13:10:17.436Z,1012.04
2018-04-24T13:12:17.962Z,1012.06
2018-04-24T13:13:18.906Z,1012.16
2018-04-24T13:15:16.909Z,1012.08
2018-04-24T13:16:16.932Z,1012.10
2018-04-24T13:18:14.799Z,1012.14
2018-04-24T13:19:16.321Z,1012.09
2018-04-24T13:21:15.310Z,1012.11
2018-04-24T13:22:15.327Z,1012.08
2018-04-24T13:24:16.262Z,1012.09
2018-04-24T13:25:15.819Z,1012.07
2018-04-24T13:27:16.282Z,1012.12
2018-04-24T13:28:16.201Z,1012.12
2018-04-24T13:30:14.171Z,1011.98
2018-04-24T13:31:15.691Z,1011.97
2018-04-24T13:33:11.110Z,1011.89
2018-04-24T13:34:11.621Z,1011.89
2018-04-24T13:36:12.565Z,1011.89
2018-04-24T13:37:11.676Z,1011.81
2018-04-24T13:39:10.048Z,1011.74
2018-04-24T13:40:09.705Z,1011.73
2018-04-24T13:42:11.145Z,1011.71
2018-04-24T13:43:12.105Z,1011.71
2018-04-24T13:45:11.684Z,1011.65
2018-04-24T13:46:11.637Z,1011.70
2018-04-24T13:48:11.601Z,1011.63
2018-04-24T13:49:11.081Z,1011.61
2018-04-24T13:51:11.533Z,1011.62
2018-04-24T13:52:11.515Z,1011.54
2018-04-24T13:54:12.474Z,1011.54
2018-04-24T13:55:12.536Z,1011.50
2018-04-24T13:57:13.444Z,1011.49
2018-04-24T13:58:12.932Z,1011.52
2018-04-24T14:00:08.977Z,1011.45
2018-04-24T14:01:08.945Z,1011.45
2018-04-24T14:03:10.365Z,1011.39
2018-04-24T14:04:08.852Z,1011.43
2018-04-24T14:06:10.851Z,1011.39
2018-04-24T14:07:09.322Z,1011.47
2018-04-24T14:09:10.765Z,1011.43
2018-04-24T14:10:09.803Z,1011.41
2018-04-24T14:12:11.319Z,1011.38
2018-04-24T14:13:10.262Z,1011.34
2018-04-24T14:15:12.678Z,1011.30
2018-04-24T14:16:10.805Z,1011.32
2018-04-24T14:18:11.183Z,1011.24
2018-04-24T14:19:11.140Z,1011.30
2018-04-24T14:21:09.099Z,1011.28
2018-04-24T14:22:07.125Z,1011.23
2018-04-24T14:24:03.044Z,1011.15
2018-04-24T14:25:03.049Z,1011.19
2018-04-24T14:27:02.507Z,1011.17
2018-04-24T14:28:01.177Z,1011.17
2018-04-24T14:29:58.147Z,1011.19
2018-04-24T14:30:57.109Z,1011.16
2018-04-24T14:32:54.107Z,1011.12
2018-04-24T14:33:53.080Z,1011.11
2018-04-24T14:35:53.527Z,1011.11
2018-04-24T14:36:54.036Z,1011.12
2018-04-24T14:38:52.984Z,1011.11
2018-04-24T14:39:51.633Z,1011.12
2018-04-24T14:41:51.067Z,1011.06
2018-04-24T14:42:50.103Z,1011.06
2018-04-24T14:44:47.622Z,1011.02
2018-04-24T14:45:47.697Z,1011.01
2018-04-24T14:47:48.107Z,1011.07
2018-04-24T14:48:48.173Z,1011.00
2018-04-24T14:50:46.103Z,1010.99
2018-04-24T14:51:46.129Z,1010.96
2018-04-24T14:53:42.024Z,1010.88
2018-04-24T14:54:42.595Z,1010.87
2018-04-24T14:56:40.101Z,1010.83
2018-04-24T14:57:42.017Z,1010.86
2018-04-24T14:59:41.112Z,1010.85
2018-04-24T15:00:40.550Z,1010.84
2018-04-24T15:02:37.537Z,1010.81
2018-04-24T15:03:37.509Z,1010.75
2018-04-24T15:05:33.675Z,1010.74
2018-04-24T15:06:32.640Z,1010.74
2018-04-24T15:08:31.594Z,1010.74
2018-04-24T15:09:30.571Z,1010.76
2018-04-24T15:11:29.072Z,1010.75
2018-04-24T15:12:28.540Z,1010.70
2018-04-24T15:14:24.477Z,1010.64
2018-04-24T15:15:24.485Z,1010.69
2018-04-24T15:17:21.372Z,1010.66
2018-04-24T15:18:20.943Z,1010.72
2018-04-24T15:20:19.406Z,1010.62
2018-04-24T15:21:18.551Z,1010.60
2018-04-24T15:23:15.528Z,1010.58
2018-04-24T15:24:15.504Z,1010.56
2018-04-24T15:26:11.988Z,1010.58
2018-04-24T15:27:11.897Z,1010.49
2018-04-24T15:29:06.394Z,1010.46
2018-04-24T15:30:07.907Z,1010.45
2018-04-24T15:32:02.360Z,1010.33
2018-04-24T15:33:02.348Z,1010.33
2018-04-24T15:34:58.371Z,1010.34
2018-04-24T15:35:59.330Z,1010.39
2018-04-24T15:38:00.803Z,1010.40
2018-04-24T15:38:59.776Z,1010.36
2018-04-24T15:41:00.247Z,1010.32
2018-04-24T15:42:00.234Z,1010.25
2018-04-24T15:44:00.741Z,1010.20
2018-04-24T15:45:00.825Z,1010.12
2018-04-24T15:47:01.235Z,1010.06
2018-04-24T15:48:01.206Z,1010.04
2018-04-24T15:49:59.696Z,1010.02
2018-04-24T15:50:59.281Z,1010.05
2018-04-24T15:53:01.246Z,1010.07
2018-04-24T15:53:59.774Z,1010.07
2018-04-24T15:55:57.691Z,1010.03
2018-04-24T15:56:57.682Z,1010.00
2018-04-24T15:58:56.115Z,1010.00
2018-04-24T15:59:55.611Z,1010.01
2018-04-24T16:01:53.698Z,1009.96
2018-04-24T16:02:54.667Z,1009.95
2018-04-24T16:04:54.164Z,1009.93
2018-04-24T16:05:54.170Z,1009.92
2018-04-24T16:07:55.128Z,1009.94
2018-04-24T16:08:55.150Z,1009.96
2018-04-24T16:10:53.598Z,1009.97
2018-04-24T16:11:52.706Z,1009.96
2018-04-24T16:13:48.808Z,1009.92
2018-04-24T16:14:49.699Z,1010.00
2018-04-24T16:16:47.085Z,1009.98
2018-04-24T16:17:47.095Z,1009.97
2018-04-24T16:19:45.186Z,1010.02
2018-04-24T16:20:45.193Z,1010.05
2018-04-24T16:22:43.105Z,1010.00
2018-04-24T16:23:43.627Z,1009.98
2018-04-24T16:25:42.138Z,1009.96
2018-04-24T16:26:41.204Z,1009.95
2018-04-24T16:28:41.162Z,1009.92
2018-04-24T16:29:40.307Z,1009.88
2018-04-24T16:31:35.743Z,1009.91
2018-04-24T16:32:35.236Z,1009.94
2018-04-24T16:34:35.198Z,1009.90
2018-04-24T16:35:33.329Z,1009.90
2018-04-24T16:37:31.305Z,1009.89
2018-04-24T16:38:31.285Z,1009.87
2018-04-24T16:40:27.218Z,1009.86
2018-04-24T16:41:27.228Z,1009.89
2018-04-24T16:43:23.241Z,1009.85
2018-04-24T16:45:42.153Z,1009.85
2018-04-24T16:46:42.155Z,1009.80
2018-04-24T16:48:39.695Z,1009.72
2018-04-24T16:49:39.726Z,1009.72
2018-04-24T16:51:37.680Z,1009.67
2018-04-24T16:52:37.299Z,1009.67
2018-04-24T16:54:34.275Z,1009.68
2018-04-24T16:55:33.291Z,1009.70
2018-04-24T16:57:29.270Z,1009.67
2018-04-24T16:58:29.735Z,1009.63
2018-04-24T17:00:29.704Z,1009.65
2018-04-24T17:01:27.353Z,1009.62
2018-04-24T17:03:25.869Z,1009.52
2018-04-24T17:04:26.282Z,1009.51
2018-04-24T17:06:23.505Z,1009.45
2018-04-24T17:07:23.382Z,1009.47
2018-04-24T17:09:22.370Z,1009.46
2018-04-24T17:10:21.337Z,1009.46
2018-04-24T17:12:19.455Z,1009.47
2018-04-24T17:13:19.421Z,1009.44
2018-04-24T17:15:18.397Z,1009.39
2018-04-24T17:16:18.388Z,1009.39
2018-04-24T17:18:15.533Z,1009.43
2018-04-24T17:19:15.452Z,1009.38
2018-04-24T17:21:15.850Z,1009.44
2018-04-24T17:22:16.857Z,1009.41
2018-04-24T17:24:13.836Z,1009.42
2018-04-24T17:25:15.325Z,1009.37
2018-04-24T17:27:14.427Z,1009.34
2018-04-24T17:28:14.262Z,1009.31
2018-04-24T17:30:17.750Z,1009.36
2018-04-24T17:31:14.731Z,1009.35
2018-04-24T17:33:12.821Z,1009.38
2018-04-24T17:34:12.856Z,1009.37
2018-04-24T17:36:11.288Z,1009.34
2018-04-24T17:37:11.396Z,1009.32
2018-04-24T17:39:12.219Z,1009.27
2018-04-24T17:40:11.279Z,1009.30
2018-04-24T17:42:11.735Z,1009.29
2018-04-24T17:43:11.771Z,1009.24
2018-04-24T17:45:12.235Z,1009.24
2018-04-24T17:46:12.197Z,1009.21
2018-04-24T17:48:13.166Z,1009.21
2018-04-24T17:49:13.129Z,1009.21
2018-04-24T17:51:13.100Z,1009.18
2018-04-24T17:52:13.591Z,1009.14
2018-04-24T17:54:11.558Z,1009.15